バミューダ の空港の天気 - METARとTAF

バミューダ国際空港 ( TXKF / BDA ) - バミューダ諸島 Ferry Reach
飛行場実況気象(Metar)
観測時間12/14 01:55 AST (12/14 05:55 UTC)
風向・風速北北東 2m/s
視程10km以上
天気現象
少しの雲 雲底高度 1160m
少しの雲 雲底高度 1920m
全天の8割程度の雲 雲底高度 9140m
気温16℃
湿度59%
気圧1030hPa
METARTXKF 140555Z 02004KT 9999 FEW038 FEW063 BKN300 16/08 Q1030
過去の天気等 Google飛行場航空写真 Wunderground天気予報

過去48時間のMETAR

飛行場予報(TAF)
発表時間: 12/14 01:37 AST (12/14 05:37 UTC)
予報対象時間: 14日2時 AST ~ 15日2時 AST
風向・風速北東 3m/s
視程10km以上
少しの雲 雲底高度 1370m
全天の4割程度の雲 雲底高度 1830m
全天の8割程度の雲 雲底高度 9140m
14日10時 AST ~ 14日13時 AST に徐々に
風向・風速東 6m/s
14日23時 AST ~ 15日2時 AST に徐々に
風向・風速南南東 9m/s
TAF TXKF 140537Z 1406/1506 04006KT 9999 FEW045 SCT060 BKN300
BECMG 1414/1417 10012KT
BECMG 1503/1506 16018KT